Muonio, Finland

8:05 AM EEST on May 25, 2017 (GMT +0300)
Enontekio | | Change Station

Elev 1004 ft 68.36 °N, 23.42 °E | Updated 45 minutes ago

Clear
Clear
37 °F
Feels Like 37 °F
N
1
Wind Variable Wind from North

Today
High -- | Low -- °F
--% Chance of Precip.
Yesterday
High -- | Low -- °F
Precip. -- in
Pressure 29.68 in
Visibility -9999.0 miles
Clouds
Dew Point 30 °F
Humidity 75%
Rainfall 0.00 in
Snow Depth Not available.
1:59 AM 1:00 AM
Waning Crescent, 1% visible
METAR EFET 250420Z AUTO 36001KT CAVOK 03/M01 Q1005
Pressure 29.68 in
Visibility -9999.0 miles
Clouds
Dew Point 30 °F
Humidity 75%
Rainfall 0.00 in
Snow Depth Not available.
1:59 AM 1:00 AM
Waning Crescent, 1% visible
METAR EFET 250420Z AUTO 36001KT CAVOK 03/M01 Q1005

Get Severe Weather Alerts

Thanks for signing up!

Be on the lookout for a verification email in your inbox.

You'll start receiving the daily forecast at 6 AM.

×

10-Day Weather Forecast

×

Almanac

Astronomy

May. 25, 2017 Rise Set
Actual Time
Civil Twilight
Nautical Twilight
Astronomical Twilight
Moon
Length of Visible Light
Length of Day
Tomorrow will be .
, % of the Moon is Illuminated

Today's Extremes

Country Highs Country Lows

Community

WunderPhotos

Category 6

Welcome to Category 6. This is the collective home for Weather Underground's featured writeups by Dr. Jeff Masters (right), Bob Henson (left), Chris Burt, and other regular contributors.

Nearby

Air Quality

  Air Quality AQ Index Pollutant
Not available.

Snow Depth

Station Depth Elevation

Earthquake Activity

City Distance Mag. Time & Date
Minimum magnitude displayed is 2.5.

Coastal Water Temperatures

Place Temperature

Stations

Nearby Weather Stations

Station Location Temp. Windchill Dew Point Humidity Wind Precip. Elev Updated Type